Terminal Aerodrome Forecast
Issued by NWS

Home | Current Version | Previous Version | Text Only | Print | Product List | Glossary On
Versions: 1 2 3 4 5 6 7 8 9 10 11 12 13 14 15
000
FTUS42 KMLB 250500
TAFTIX
TAF
KTIX 250529Z 2506/2606 30008KT P6SM FEW200
     FM251600 33006KT P6SM FEW150 SCT250
     FM252300 23005KT P6SM SCT100 BKN250
      AMD NOT SKED TIL 251200=

USA.gov is the U.S. government's official web portal to all federal, state and local government web resources and services.